Time;durP1;ratioP1;P1;durP2;ratioP2;P2;SDS_P1;SDS_P2;PMS_P1;PMS_P2;Temp;Humidity;BMP_temperature;BMP_pressure;BME280_temperature;BME280_humidity;BME280_pressure;Samples;Min_cycle;Max_cycle;Signal;HPM_P1;HPM_P2
2022/12/13 00:02:20;;;;;;;;;;;-3.20;99.90;;;;;;4954364;29;19923;-80
2022/12/13 00:04:46;;;;;;;;;;;-3.30;99.90;;;;;;4953906;29;19922;-81
2022/12/13 00:07:11;;;;;;;;;;;-3.30;99.90;;;;;;4953168;29;20030;-80
2022/12/13 00:09:37;;;;;;;;;;;-3.40;99.90;;;;;;4954076;29;19978;-80
2022/12/13 00:12:03;;;;;;;;;;;-3.40;99.90;;;;;;4954019;28;19923;-80
2022/12/13 00:14:28;;;;;;;;;;;-3.40;99.90;;;;;;4958377;29;19946;-80
2022/12/13 00:16:54;;;;;;;;;;;-3.40;99.90;;;;;;4957377;28;20378;-80
2022/12/13 00:19:20;;;;;;;;;;;-3.50;99.90;;;;;;4957322;29;19926;-80
2022/12/13 00:21:45;;;;;;;;;;;-3.50;99.90;;;;;;4958120;28;20042;-80
2022/12/13 00:24:11;;;;;;;;;;;-3.40;99.90;;;;;;4958330;29;20488;-80
2022/12/13 00:26:37;;;;;;;;;;;-3.50;99.90;;;;;;4957002;29;19922;-81
2022/12/13 00:29:04;;;;;;;;;;;-3.50;99.90;;;;;;4957147;29;20358;-81
2022/12/13 00:31:33;;;;;;;;;;;-3.50;99.90;;;;;;4958413;28;19933;-81
2022/12/13 00:33:59;;;;;;;;;;;-3.50;99.90;;;;;;4957193;28;19923;-81
2022/12/13 00:36:25;;;;;;;;;;;-3.50;99.90;;;;;;4958095;29;19948;-80
2022/12/13 00:38:59;;;;;;;;;;;-1.20;99.90;;;;;;4957962;29;20375;-81
2022/12/13 00:41:25;;;;;;;;;;;-3.60;99.90;;;;;;4956077;29;19945;-81
2022/12/13 00:43:51;;;;;;;;;;;-3.60;99.90;;;;;;4956481;29;19922;-81
2022/12/13 00:46:18;;;;;;;;;;;-3.60;99.90;;;;;;4957443;29;20386;-80
2022/12/13 00:48:47;;;;;;;;;;;-3.70;99.90;;;;;;4955764;28;19929;-80
2022/12/13 00:51:13;;;;;;;;;;;-3.80;99.90;;;;;;4957103;29;19977;-80
2022/12/13 00:53:38;;;;;;;;;;;-3.90;99.90;;;;;;4955810;29;19922;-80
2022/12/13 00:56:08;;;;;;;;;;;-3.90;99.90;;;;;;4957928;29;20010;-80
2022/12/13 00:58:34;;;;;;;;;;;-3.90;99.90;;;;;;4957495;28;20017;-80
2022/12/13 01:01:07;;;;;;;;;;;-4.10;99.90;;;;;;4957058;29;20045;-81
2022/12/13 01:03:33;;;;;;;;;;;-4.10;99.90;;;;;;4956018;29;19923;-81
2022/12/13 01:05:59;;;;;;;;;;;-2.20;99.90;;;;;;4956407;29;19923;-80
2022/12/13 01:08:24;;;;;;;;;;;-4.00;99.90;;;;;;4956770;28;19949;-81
2022/12/13 01:10:50;;;;;;;;;;;-4.00;99.90;;;;;;4957344;29;19926;-81
2022/12/13 01:13:15;;;;;;;;;;;-4.00;99.90;;;;;;4957162;29;19929;-80
2022/12/13 01:15:42;;;;;;;;;;;-4.00;99.90;;;;;;4954992;29;19929;-81
2022/12/13 01:18:07;;;;;;;;;;;-3.90;99.90;;;;;;4957029;28;19938;-81
2022/12/13 01:20:33;;;;;;;;;;;-3.90;99.90;;;;;;4957227;28;20292;-80
2022/12/13 01:22:58;;;;;;;;;;;-3.80;99.90;;;;;;4956368;28;20012;-81
2022/12/13 01:25:24;;;;;;;;;;;-3.80;99.90;;;;;;4955473;29;19974;-80
2022/12/13 01:27:50;;;;;;;;;;;-3.80;99.90;;;;;;4957474;29;19942;-80
2022/12/13 01:30:15;;;;;;;;;;;-3.80;99.90;;;;;;4956077;28;19934;-80
2022/12/13 01:32:41;;;;;;;;;;;-3.70;99.90;;;;;;4955416;29;19934;-81
2022/12/13 01:35:06;;;;;;;;;;;-3.80;99.90;;;;;;4956650;29;19929;-80
2022/12/13 01:37:32;;;;;;;;;;;-3.80;99.90;;;;;;4956285;28;19922;-80
2022/12/13 01:39:57;;;;;;;;;;;-3.70;99.90;;;;;;4956948;29;19926;-80
2022/12/13 01:42:23;;;;;;;;;;;-3.70;99.90;;;;;;4955078;29;19922;-80
2022/12/13 01:44:54;;;;;;;;;;;-3.70;99.90;;;;;;4956085;29;19923;-80
2022/12/13 01:47:26;;;;;;;;;;;-3.70;99.90;;;;;;4955419;29;19926;-81
2022/12/13 01:49:53;;;;;;;;;;;-3.70;99.90;;;;;;4955900;29;19923;-80
2022/12/13 01:52:19;;;;;;;;;;;-3.00;99.90;;;;;;4954695;29;19977;-80
2022/12/13 01:54:47;;;;;;;;;;;-3.80;99.90;;;;;;4956361;29;20317;-80
2022/12/13 01:57:14;;;;;;;;;;;-3.70;99.90;;;;;;4954497;29;19929;-80
2022/12/13 01:59:40;;;;;;;;;;;-3.70;99.90;;;;;;4955596;29;19926;-80
2022/12/13 02:02:07;;;;;;;;;;;-3.70;99.90;;;;;;4956427;28;19922;-80
2022/12/13 02:04:39;;;;;;;;;;;-3.80;99.90;;;;;;4955629;28;20008;-80
2022/12/13 02:07:05;;;;;;;;;;;-3.80;99.90;;;;;;4956241;28;19930;-81
2022/12/13 02:09:33;;;;;;;;;;;-3.80;99.90;;;;;;4955078;29;20028;-81
2022/12/13 02:11:59;;;;;;;;;;;-3.80;99.90;;;;;;4955643;29;19970;-82
2022/12/13 02:14:24;;;;;;;;;;;-3.80;99.90;;;;;;4956155;29;19939;-82
2022/12/13 02:17:00;;;;;;;;;;;-3.90;99.90;;;;;;4954582;28;19926;-82
2022/12/13 02:19:43;;;;;;;;;;;-3.90;99.90;;;;;;4955118;29;20449;-81
2022/12/13 02:22:21;;;;;;;;;;;-3.90;99.90;;;;;;4954759;29;20021;-82
2022/12/13 02:24:49;;;;;;;;;;;-3.90;99.90;;;;;;4956200;29;19922;-82
2022/12/13 02:27:33;;;;;;;;;;;-3.90;99.90;;;;;;4953637;29;19927;-82
2022/12/13 02:30:19;;;;;;;;;;;-3.80;99.90;;;;;;4956141;28;19923;-82
2022/12/13 02:32:47;;;;;;;;;;;-3.90;99.90;;;;;;4955124;29;19969;-82
2022/12/13 02:35:21;;;;;;;;;;;-3.90;99.90;;;;;;4955528;28;20009;-82
2022/12/13 02:37:49;;;;;;;;;;;-3.90;99.90;;;;;;4955039;29;19929;-82
2022/12/13 02:40:30;;;;;;;;;;;-3.90;99.90;;;;;;4954895;29;20009;-82
2022/12/13 02:43:04;;;;;;;;;;;-3.90;99.90;;;;;;4955486;28;19965;-82
2022/12/13 02:45:33;;;;;;;;;;;-3.90;99.90;;;;;;4955272;29;20020;-82
2022/12/13 02:48:00;;;;;;;;;;;-4.00;99.90;;;;;;4954993;28;19965;-81
2022/12/13 02:50:26;;;;;;;;;;;-4.00;99.90;;;;;;4955262;28;20005;-82
2022/12/13 02:52:52;;;;;;;;;;;-4.00;99.90;;;;;;4955624;28;19989;-82
2022/12/13 02:55:17;;;;;;;;;;;-4.00;99.90;;;;;;4952880;29;19973;-81
2022/12/13 02:57:44;;;;;;;;;;;-4.00;99.90;;;;;;4955820;29;19922;-81
2022/12/13 03:00:12;;;;;;;;;;;-4.00;99.90;;;;;;4954635;29;20410;-80
2022/12/13 03:03:00;;;;;;;;;;;-4.00;99.90;;;;;;4953335;29;19922;-81
2022/12/13 03:08:19;;;;;;;;;;;-4.00;99.90;;;;;;4954645;28;19922;-81
2022/12/13 03:11:03;;;;;;;;;;;-4.00;99.90;;;;;;4955667;29;20425;-81
2022/12/13 03:13:36;;;;;;;;;;;-3.90;99.90;;;;;;4955144;28;19922;-81
2022/12/13 03:16:14;;;;;;;;;;;-3.90;99.90;;;;;;4954594;29;19946;-81
2022/12/13 03:18:40;;;;;;;;;;;-3.80;99.90;;;;;;4954994;29;19933;-81
2022/12/13 03:21:07;;;;;;;;;;;-3.80;99.90;;;;;;4954157;29;19977;-81
2022/12/13 03:23:34;;;;;;;;;;;-3.80;99.90;;;;;;4952898;29;20245;-81
2022/12/13 03:26:08;;;;;;;;;;;-3.90;99.90;;;;;;4953658;29;19938;-82
2022/12/13 03:28:33;;;;;;;;;;;-3.90;99.90;;;;;;4952804;29;19923;-80
2022/12/13 03:30:59;;;;;;;;;;;-4.00;99.90;;;;;;4953490;29;19925;-81
2022/12/13 03:33:24;;;;;;;;;;;-4.00;99.90;;;;;;4953409;29;19929;-81
2022/12/13 03:35:50;;;;;;;;;;;-4.00;99.90;;;;;;4952299;28;20005;-81
2022/12/13 03:38:16;;;;;;;;;;;-4.00;99.90;;;;;;4952997;28;19922;-81
2022/12/13 03:40:42;;;;;;;;;;;-4.00;99.90;;;;;;4954980;28;19969;-81
2022/12/13 03:43:08;;;;;;;;;;;-3.90;99.90;;;;;;4954214;29;19919;-81
2022/12/13 03:45:33;;;;;;;;;;;-3.90;99.90;;;;;;4954509;29;20374;-80
2022/12/13 03:47:59;;;;;;;;;;;-3.80;99.90;;;;;;4953532;28;19918;-80
2022/12/13 03:50:24;;;;;;;;;;;-3.80;99.90;;;;;;4952906;29;19930;-80
2022/12/13 03:52:50;;;;;;;;;;;-3.80;99.90;;;;;;4954980;29;19963;-80
2022/12/13 03:55:16;;;;;;;;;;;-2.50;99.90;;;;;;4952856;28;20013;-80
2022/12/13 03:57:42;;;;;;;;;;;-4.00;99.90;;;;;;4952925;29;20017;-80
2022/12/13 04:00:08;;;;;;;;;;;-4.00;99.90;;;;;;4954997;29;20366;-80
2022/12/13 04:02:33;;;;;;;;;;;-3.90;99.90;;;;;;4953167;28;19922;-80
2022/12/13 04:04:59;;;;;;;;;;;-3.90;99.90;;;;;;4952308;29;19926;-80
2022/12/13 04:07:24;;;;;;;;;;;-3.90;99.90;;;;;;4954272;29;19989;-80
2022/12/13 04:09:50;;;;;;;;;;;-3.90;99.90;;;;;;4954930;29;19934;-80
2022/12/13 04:15:01;;;;;;;;;;;-4.00;99.90;;;;;;4952931;28;20382;-80
2022/12/13 04:17:27;;;;;;;;;;;-4.00;99.90;;;;;;4954538;29;19969;-80
2022/12/13 04:19:52;;;;;;;;;;;-3.90;99.90;;;;;;4953987;28;19923;-80
2022/12/13 04:22:18;;;;;;;;;;;-2.40;99.90;;;;;;4952756;29;20386;-80
2022/12/13 04:24:43;;;;;;;;;;;-3.80;99.90;;;;;;4952773;29;19923;-80
2022/12/13 04:27:09;;;;;;;;;;;-3.80;99.90;;;;;;4953486;29;20481;-80
2022/12/13 04:29:34;;;;;;;;;;;-3.80;99.90;;;;;;4953721;29;19929;-80
2022/12/13 04:32:00;;;;;;;;;;;-3.80;99.90;;;;;;4953549;29;20310;-80
2022/12/13 04:34:26;;;;;;;;;;;-3.90;99.90;;;;;;4954402;28;19926;-80
2022/12/13 04:36:51;;;;;;;;;;;-3.80;99.90;;;;;;4953325;29;19923;-80
2022/12/13 04:39:16;;;;;;;;;;;-3.80;99.90;;;;;;4952371;29;19961;-80
2022/12/13 04:41:42;;;;;;;;;;;-3.90;99.90;;;;;;4952488;29;19937;-80
2022/12/13 04:44:09;;;;;;;;;;;-3.80;99.90;;;;;;4953177;29;20306;-80
2022/12/13 04:46:34;;;;;;;;;;;-3.80;99.90;;;;;;4953335;28;20005;-80
2022/12/13 04:49:00;;;;;;;;;;;-3.80;99.90;;;;;;4952421;29;20077;-80
2022/12/13 04:51:26;;;;;;;;;;;-3.80;99.90;;;;;;4952665;29;19926;-79
2022/12/13 04:53:51;;;;;;;;;;;-4.00;99.90;;;;;;4953773;29;19993;-79
2022/12/13 04:56:17;;;;;;;;;;;-3.80;99.90;;;;;;4954400;29;19954;-82
2022/12/13 04:58:43;;;;;;;;;;;-3.80;99.90;;;;;;4953547;28;20305;-82
2022/12/13 05:01:09;;;;;;;;;;;-3.80;99.90;;;;;;4956163;29;19973;-81
2022/12/13 05:03:36;;;;;;;;;;;-3.90;99.90;;;;;;4957562;28;19923;-83
2022/12/13 05:06:05;;;;;;;;;;;-3.80;99.90;;;;;;4957991;28;20012;-83
2022/12/13 05:08:31;;;;;;;;;;;-3.90;99.90;;;;;;4954813;29;20021;-79
2022/12/13 05:10:56;;;;;;;;;;;-3.90;99.90;;;;;;4957393;29;19993;-86
2022/12/13 05:13:21;;;;;;;;;;;-3.90;99.90;;;;;;4955914;28;19926;-81
2022/12/13 05:15:53;;;;;;;;;;;-3.90;99.90;;;;;;4955848;29;19933;-84
2022/12/13 05:18:18;;;;;;;;;;;-3.90;99.90;;;;;;4955830;28;19929;-83
2022/12/13 05:20:44;;;;;;;;;;;-3.90;99.90;;;;;;4957793;29;19922;-87
2022/12/13 05:23:09;;;;;;;;;;;-3.90;99.90;;;;;;4956874;28;19922;-87
2022/12/13 05:25:35;;;;;;;;;;;-4.00;99.90;;;;;;4956667;29;19922;-87
2022/12/13 05:28:01;;;;;;;;;;;-3.90;99.90;;;;;;4956139;28;20282;-89
2022/12/13 05:30:26;;;;;;;;;;;-3.90;99.90;;;;;;4956041;29;19969;-88
2022/12/13 05:32:52;;;;;;;;;;;-3.10;99.90;;;;;;4957891;29;19993;-88
2022/12/13 05:35:17;;;;;;;;;;;-4.00;99.90;;;;;;4956017;29;20374;-87
2022/12/13 05:37:43;;;;;;;;;;;-4.00;99.90;;;;;;4956723;29;20457;-87
2022/12/13 05:40:08;;;;;;;;;;;-4.00;99.90;;;;;;4956733;29;20014;-87
2022/12/13 05:42:36;;;;;;;;;;;-4.00;99.90;;;;;;4955980;29;19918;-87
2022/12/13 05:45:01;;;;;;;;;;;-4.00;99.90;;;;;;4955336;29;19977;-86
2022/12/13 05:47:27;;;;;;;;;;;-4.00;99.90;;;;;;4956742;29;19918;-86
2022/12/13 05:49:52;;;;;;;;;;;-4.00;99.90;;;;;;4955866;29;20377;-86
2022/12/13 05:52:19;;;;;;;;;;;-4.00;99.90;;;;;;4953684;29;19922;-87
2022/12/13 05:54:44;;;;;;;;;;;-4.00;99.90;;;;;;4954888;29;19918;-87
2022/12/13 05:57:10;;;;;;;;;;;-3.90;99.90;;;;;;4955975;29;19933;-87
2022/12/13 05:59:36;;;;;;;;;;;-3.90;99.90;;;;;;4955744;29;20025;-87
2022/12/13 06:02:01;;;;;;;;;;;-3.90;99.90;;;;;;4956480;29;19923;-87
2022/12/13 06:04:27;;;;;;;;;;;-3.90;99.90;;;;;;4955640;28;19929;-87
2022/12/13 06:06:53;;;;;;;;;;;-3.90;99.90;;;;;;4955479;28;19922;-88
2022/12/13 06:09:19;;;;;;;;;;;-3.90;99.90;;;;;;4959363;28;19922;-86
2022/12/13 06:11:44;;;;;;;;;;;-4.00;99.90;;;;;;4954952;29;19922;-88
2022/12/13 06:14:10;;;;;;;;;;;-3.90;99.90;;;;;;4956910;29;19926;-87
2022/12/13 06:16:35;;;;;;;;;;;-4.00;99.90;;;;;;4955331;28;19929;-87
2022/12/13 06:19:01;;;;;;;;;;;-4.00;99.90;;;;;;4957308;29;19929;-86
2022/12/13 06:21:26;;;;;;;;;;;-4.00;99.90;;;;;;4956041;29;19923;-87
2022/12/13 06:23:52;;;;;;;;;;;-4.00;99.90;;;;;;4955652;29;19929;-87
2022/12/13 06:26:18;;;;;;;;;;;-4.00;99.90;;;;;;4953713;28;19928;-86
2022/12/13 06:28:43;;;;;;;;;;;-4.00;99.90;;;;;;4954642;29;19922;-81
2022/12/13 06:31:09;;;;;;;;;;;-4.00;99.90;;;;;;4955072;29;20024;-81
2022/12/13 06:33:35;;;;;;;;;;;-4.00;99.90;;;;;;4955419;29;19930;-78
2022/12/13 06:36:01;;;;;;;;;;;-4.00;99.90;;;;;;4954840;29;19923;-78
2022/12/13 06:38:27;;;;;;;;;;;-3.90;99.90;;;;;;4955095;29;19923;-90
2022/12/13 06:40:52;;;;;;;;;;;-4.00;99.90;;;;;;4956092;29;20000;-83
2022/12/13 06:43:18;;;;;;;;;;;-3.90;99.90;;;;;;4955824;29;19929;-77
2022/12/13 06:45:44;;;;;;;;;;;-3.80;99.90;;;;;;4954051;29;20025;-82
2022/12/13 06:48:10;;;;;;;;;;;-3.80;99.90;;;;;;4954924;29;20021;-81
2022/12/13 06:50:36;;;;;;;;;;;-3.70;99.90;;;;;;4951109;29;19930;-80
2022/12/13 06:53:02;;;;;;;;;;;-3.20;99.90;;;;;;4953503;29;19923;-82
2022/12/13 06:55:27;;;;;;;;;;;-3.70;99.90;;;;;;4952712;29;19985;-80
2022/12/13 06:57:53;;;;;;;;;;;-3.70;99.90;;;;;;4953198;29;19922;-80
2022/12/13 07:00:18;;;;;;;;;;;-3.70;99.90;;;;;;4952951;29;19923;-80
2022/12/13 07:02:44;;;;;;;;;;;-3.60;99.90;;;;;;4952929;29;19922;-81
2022/12/13 07:05:09;;;;;;;;;;;-3.70;99.90;;;;;;4953991;29;20386;-83
2022/12/13 07:07:35;;;;;;;;;;;-1.00;99.90;;;;;;4951947;29;20279;-82
2022/12/13 07:10:00;;;;;;;;;;;-3.80;99.90;;;;;;4953194;29;20390;-78
2022/12/13 07:12:26;;;;;;;;;;;-3.70;99.90;;;;;;4955004;28;20010;-81
2022/12/13 07:14:52;;;;;;;;;;;-2.20;99.90;;;;;;4954795;29;19922;-84
2022/12/13 07:17:17;;;;;;;;;;;-3.70;99.90;;;;;;4953977;28;19923;-77
2022/12/13 07:19:43;;;;;;;;;;;-3.70;99.90;;;;;;4953715;29;19948;-80
2022/12/13 07:22:08;;;;;;;;;;;-3.80;99.90;;;;;;4952776;28;19930;-79
2022/12/13 07:24:34;;;;;;;;;;;-3.80;99.90;;;;;;4953062;29;19923;-77
2022/12/13 07:27:00;;;;;;;;;;;-3.80;99.90;;;;;;4955082;29;19923;-80
2022/12/13 07:29:25;;;;;;;;;;;-3.80;99.90;;;;;;4952243;29;20288;-77
2022/12/13 07:31:51;;;;;;;;;;;-3.80;99.90;;;;;;4954769;29;19937;-80
2022/12/13 07:34:16;;;;;;;;;;;-3.70;99.90;;;;;;4953685;29;19937;-80
2022/12/13 07:36:42;;;;;;;;;;;-3.70;99.90;;;;;;4951491;29;20336;-80
2022/12/13 07:39:07;;;;;;;;;;;-3.60;99.90;;;;;;4952573;28;19922;-79
2022/12/13 07:41:33;;;;;;;;;;;-3.60;99.90;;;;;;4951602;29;20308;-79
2022/12/13 07:43:58;;;;;;;;;;;-3.60;99.90;;;;;;4953103;28;19929;-80
2022/12/13 07:46:24;;;;;;;;;;;-3.60;99.90;;;;;;4951743;29;19930;-79
2022/12/13 07:48:49;;;;;;;;;;;-3.70;99.90;;;;;;4952479;29;19926;-79
2022/12/13 07:51:15;;;;;;;;;;;-3.70;99.90;;;;;;4953596;29;20013;-80
2022/12/13 07:53:40;;;;;;;;;;;-3.70;99.90;;;;;;4953663;29;19926;-80
2022/12/13 07:56:08;;;;;;;;;;;-3.60;99.90;;;;;;4954252;29;19926;-80
2022/12/13 07:58:34;;;;;;;;;;;-3.60;99.90;;;;;;4954389;28;20314;-80
2022/12/13 08:01:01;;;;;;;;;;;-3.60;99.90;;;;;;4952974;29;19926;-79
2022/12/13 08:03:26;;;;;;;;;;;-3.60;99.90;;;;;;4952935;29;20029;-79
2022/12/13 08:06:10;;;;;;;;;;;-3.60;99.90;;;;;;4954477;28;19966;-80
2022/12/13 08:08:36;;;;;;;;;;;-3.60;99.90;;;;;;4954630;28;20302;-80
2022/12/13 08:11:03;;;;;;;;;;;-3.60;99.90;;;;;;4953862;28;19929;-80
2022/12/13 08:13:28;;;;;;;;;;;-1.30;99.90;;;;;;4954592;28;19923;-80
2022/12/13 08:15:58;;;;;;;;;;;-0.90;99.90;;;;;;4953206;29;20446;-80
2022/12/13 08:18:24;;;;;;;;;;;-3.50;99.90;;;;;;4953420;28;20421;-79
2022/12/13 08:20:49;;;;;;;;;;;-3.40;99.90;;;;;;4953083;29;20013;-80
2022/12/13 08:23:15;;;;;;;;;;;-3.40;99.90;;;;;;4952253;28;19923;-80
2022/12/13 08:25:40;;;;;;;;;;;-3.20;99.90;;;;;;4952214;28;19922;-80
2022/12/13 08:28:06;;;;;;;;;;;-3.10;99.90;;;;;;4954718;28;20271;-80
2022/12/13 08:30:31;;;;;;;;;;;-3.10;99.90;;;;;;4954247;29;20448;-79
2022/12/13 08:32:57;;;;;;;;;;;-3.00;99.90;;;;;;4953938;28;20317;-80
2022/12/13 08:35:25;;;;;;;;;;;-2.80;99.90;;;;;;4957633;29;19966;-78
2022/12/13 08:37:51;;;;;;;;;;;-2.80;99.90;;;;;;4957224;29;19922;-79
2022/12/13 08:40:16;;;;;;;;;;;-2.60;99.90;;;;;;4956550;29;19930;-78
2022/12/13 08:42:42;;;;;;;;;;;-2.40;99.90;;;;;;4956669;29;19922;-78
2022/12/13 08:45:08;;;;;;;;;;;-1.90;99.90;;;;;;4957282;29;19930;-78
2022/12/13 08:47:33;;;;;;;;;;;-1.10;99.90;;;;;;4957604;29;19927;-79
2022/12/13 08:49:59;;;;;;;;;;;-0.10;99.90;;;;;;4956613;29;19923;-78
2022/12/13 08:52:24;;;;;;;;;;;0.80;99.90;;;;;;4955108;29;19926;-78
2022/12/13 08:54:50;;;;;;;;;;;3.60;99.90;;;;;;4956559;29;20021;-78
2022/12/13 08:57:15;;;;;;;;;;;2.40;99.90;;;;;;4957307;29;20341;-79
2022/12/13 08:59:41;;;;;;;;;;;3.10;99.90;;;;;;4955817;29;19945;-76
2022/12/13 09:02:10;;;;;;;;;;;3.80;99.90;;;;;;4956133;28;19950;-78
2022/12/13 09:04:36;;;;;;;;;;;6.20;99.90;;;;;;4955721;28;19922;-77
2022/12/13 09:07:01;;;;;;;;;;;6.10;99.90;;;;;;4957141;29;20293;-77
2022/12/13 09:09:27;;;;;;;;;;;5.00;99.90;;;;;;4957316;29;20340;-77
2022/12/13 09:11:53;;;;;;;;;;;5.50;99.90;;;;;;4956798;29;19922;-77
2022/12/13 09:14:18;;;;;;;;;;;7.20;99.90;;;;;;4954968;29;20013;-78
2022/12/13 09:16:44;;;;;;;;;;;6.70;99.90;;;;;;4957579;29;19929;-77
2022/12/13 09:19:10;;;;;;;;;;;7.40;99.90;;;;;;4957599;29;19932;-76
2022/12/13 09:21:36;;;;;;;;;;;7.60;99.90;;;;;;4955972;28;19931;-77
2022/12/13 09:24:01;;;;;;;;;;;8.10;99.90;;;;;;4955084;29;19922;-77
2022/12/13 09:26:27;;;;;;;;;;;8.60;99.90;;;;;;4955186;29;19922;-77
2022/12/13 09:28:52;;;;;;;;;;;9.60;99.90;;;;;;4956360;29;19922;-76
2022/12/13 09:31:18;;;;;;;;;;;9.50;99.90;;;;;;4956849;29;19942;-78
2022/12/13 09:33:44;;;;;;;;;;;10.40;99.90;;;;;;4955559;29;19930;-77
2022/12/13 09:36:11;;;;;;;;;;;10.20;99.90;;;;;;4955190;29;19930;-76
2022/12/13 09:38:37;;;;;;;;;;;10.30;99.90;;;;;;4956653;28;20374;-77
2022/12/13 09:41:12;;;;;;;;;;;10.50;99.90;;;;;;4956201;29;19929;-78
2022/12/13 09:43:37;;;;;;;;;;;10.70;99.00;;;;;;4955402;29;20005;-76
2022/12/13 09:46:06;;;;;;;;;;;11.10;97.70;;;;;;4956836;28;19953;-77
2022/12/13 09:48:32;;;;;;;;;;;10.70;96.50;;;;;;4955294;28;19926;-78
2022/12/13 09:50:58;;;;;;;;;;;10.80;97.40;;;;;;4955330;29;19929;-76
2022/12/13 09:53:24;;;;;;;;;;;10.90;97.30;;;;;;4956217;28;19949;-77
2022/12/13 09:55:52;;;;;;;;;;;11.10;99.90;;;;;;4954588;29;19922;-78
2022/12/13 09:58:20;;;;;;;;;;;11.70;98.20;;;;;;4954889;29;19922;-77
2022/12/13 10:00:47;;;;;;;;;;;12.00;96.50;;;;;;4955271;29;19922;-78
2022/12/13 10:03:13;;;;;;;;;;;11.90;96.70;;;;;;4954958;29;19918;-77
2022/12/13 10:05:42;;;;;;;;;;;12.30;95.40;;;;;;4955410;29;19923;-78
2022/12/13 10:08:08;;;;;;;;;;;12.20;96.70;;;;;;4956174;28;19930;-78
2022/12/13 10:10:33;;;;;;;;;;;12.60;94.60;;;;;;4955536;29;20327;-77
2022/12/13 10:13:18;;;;;;;;;;;13.00;92.20;;;;;;4956565;29;20263;-77
2022/12/13 10:15:47;;;;;;;;;;;12.90;93.60;;;;;;4955010;28;20439;-77
2022/12/13 10:18:24;;;;;;;;;;;12.90;93.30;;;;;;4953879;29;19926;-77
2022/12/13 10:20:50;;;;;;;;;;;12.90;93.70;;;;;;4954641;29;19998;-78
2022/12/13 10:23:16;;;;;;;;;;;13.50;91.80;;;;;;4955184;28;19929;-77
2022/12/13 10:25:53;;;;;;;;;;;12.70;91.90;;;;;;4954704;29;19922;-76
2022/12/13 10:28:26;;;;;;;;;;;12.90;91.70;;;;;;4949513;28;19933;-78
2022/12/13 10:30:52;;;;;;;;;;;12.70;91.20;;;;;;4953787;28;20459;-77
2022/12/13 10:33:44;;;;;;;;;;;13.10;91.90;;;;;;4955048;28;20013;-78
2022/12/13 10:36:29;;;;;;;;;;;13.00;91.20;;;;;;4952054;29;19930;-77
2022/12/13 10:38:55;;;;;;;;;;;12.40;90.70;;;;;;4954530;28;19933;-77
2022/12/13 10:41:25;;;;;;;;;;;12.90;91.50;;;;;;4953942;29;19926;-78
2022/12/13 10:44:09;;;;;;;;;;;12.40;91.80;;;;;;4953577;29;19926;-78
2022/12/13 10:46:35;;;;;;;;;;;12.10;91.30;;;;;;4952449;29;20012;-78
2022/12/13 10:49:01;;;;;;;;;;;12.50;90.70;;;;;;4955208;28;20319;-79
2022/12/13 10:51:26;;;;;;;;;;;13.50;90.00;;;;;;4953881;29;19922;-81
2022/12/13 10:53:57;;;;;;;;;;;12.90;91.30;;;;;;4953493;29;19977;-80
2022/12/13 10:56:31;;;;;;;;;;;12.30;90.60;;;;;;4954350;28;19989;-79
2022/12/13 10:59:16;;;;;;;;;;;12.30;92.70;;;;;;4954024;28;19923;-78
2022/12/13 11:01:41;;;;;;;;;;;12.60;92.40;;;;;;4934800;29;19977;-78
2022/12/13 11:04:28;;;;;;;;;;;12.80;90.70;;;;;;4934023;29;19989;-78
2022/12/13 11:06:54;;;;;;;;;;;13.70;90.80;;;;;;4933886;29;20429;-82
2022/12/13 11:09:27;;;;;;;;;;;13.80;89.30;;;;;;4951259;29;19954;-79
2022/12/13 11:11:54;;;;;;;;;;;13.00;90.50;;;;;;4953305;29;20308;-81
2022/12/13 11:14:22;;;;;;;;;;;13.80;89.40;;;;;;4953317;29;20456;-80
2022/12/13 11:16:50;;;;;;;;;;;14.00;90.20;;;;;;4954763;29;20009;-81
2022/12/13 11:19:33;;;;;;;;;;;13.30;90.80;;;;;;4954295;29;19980;-80
2022/12/13 11:22:00;;;;;;;;;;;13.80;90.20;;;;;;4954647;28;19977;-81
2022/12/13 11:24:29;;;;;;;;;;;13.40;90.50;;;;;;4954280;28;19918;-77
2022/12/13 11:26:59;;;;;;;;;;;13.30;89.30;;;;;;4952790;29;19977;-80
2022/12/13 11:29:30;;;;;;;;;;;13.90;90.00;;;;;;4953720;28;19957;-76
2022/12/13 11:32:02;;;;;;;;;;;13.90;87.80;;;;;;4954396;29;20395;-78
2022/12/13 11:34:43;;;;;;;;;;;13.30;90.10;;;;;;4951800;29;20317;-76
2022/12/13 11:37:11;;;;;;;;;;;13.60;90.20;;;;;;4954429;29;19928;-77
2022/12/13 11:39:41;;;;;;;;;;;13.70;90.10;;;;;;4953693;29;19930;-77
2022/12/13 11:42:16;;;;;;;;;;;13.60;89.50;;;;;;4953714;29;20009;-78
2022/12/13 11:44:42;;;;;;;;;;;13.10;89.00;;;;;;4952803;28;19918;-79
2022/12/13 11:47:13;;;;;;;;;;;12.30;90.50;;;;;;4953160;28;19929;-76
2022/12/13 11:49:39;;;;;;;;;;;12.90;91.10;;;;;;4952929;29;20375;-75
2022/12/13 11:52:12;;;;;;;;;;;13.20;90.30;;;;;;4953917;28;20017;-76
2022/12/13 11:54:49;;;;;;;;;;;12.70;90.40;;;;;;4952793;29;20279;-75
2022/12/13 11:57:26;;;;;;;;;;;11.60;92.10;;;;;;4954099;29;19926;-75
2022/12/13 11:59:54;;;;;;;;;;;12.00;92.10;;;;;;4953691;28;19934;-75
2022/12/13 12:02:30;;;;;;;;;;;13.10;91.20;;;;;;4953805;29;19954;-77
2022/12/13 12:04:56;;;;;;;;;;;13.30;90.60;;;;;;4953208;29;19922;-78
2022/12/13 12:07:25;;;;;;;;;;;13.20;90.50;;;;;;4953124;28;19922;-78
2022/12/13 12:09:58;;;;;;;;;;;12.80;91.00;;;;;;4956908;28;19926;-76
2022/12/13 12:12:28;;;;;;;;;;;12.50;90.90;;;;;;4958349;28;19926;-78
2022/12/13 12:15:13;;;;;;;;;;;12.80;91.40;;;;;;4958671;28;19922;-76
2022/12/13 12:17:38;;;;;;;;;;;12.70;90.70;;;;;;4953638;29;19930;-77
2022/12/13 12:20:05;;;;;;;;;;;12.80;91.10;;;;;;4956383;29;19930;-77
2022/12/13 12:22:39;;;;;;;;;;;12.70;91.60;;;;;;4956300;29;19977;-77
2022/12/13 12:25:06;;;;;;;;;;;12.80;91.10;;;;;;4957472;28;20288;-77
2022/12/13 12:28:01;;;;;;;;;;;12.70;90.80;;;;;;4957417;28;19972;-76
2022/12/13 12:30:35;;;;;;;;;;;12.10;91.10;;;;;;4934814;29;20330;-78
2022/12/13 12:33:19;;;;;;;;;;;12.30;91.50;;;;;;4957810;28;19927;-77
2022/12/13 12:36:02;;;;;;;;;;;12.90;91.40;;;;;;4957698;29;19938;-77
2022/12/13 12:38:28;;;;;;;;;;;12.10;91.20;;;;;;4956260;29;20358;-77
2022/12/13 12:40:53;;;;;;;;;;;12.50;91.80;;;;;;4956170;29;19977;-78
2022/12/13 12:43:26;;;;;;;;;;;12.00;92.30;;;;;;4955990;28;20009;-77
2022/12/13 12:46:05;;;;;;;;;;;11.70;92.20;;;;;;4956941;29;19923;-77
2022/12/13 12:48:49;;;;;;;;;;;11.50;92.40;;;;;;4956801;28;20024;-75
2022/12/13 12:51:15;;;;;;;;;;;11.80;91.80;;;;;;4956080;28;19926;-77
2022/12/13 12:53:45;;;;;;;;;;;11.70;92.10;;;;;;4955883;29;19930;-75
2022/12/13 12:56:37;;;;;;;;;;;11.40;92.70;;;;;;4956400;29;19945;-75
2022/12/13 12:59:14;;;;;;;;;;;11.20;92.70;;;;;;4954986;29;19922;-76
2022/12/13 13:01:43;;;;;;;;;;;10.70;93.90;;;;;;4954999;29;19922;-77
2022/12/13 13:04:10;;;;;;;;;;;10.50;93.70;;;;;;4956970;29;19927;-77
2022/12/13 13:06:36;;;;;;;;;;;10.50;94.40;;;;;;4955945;28;19923;-76
2022/12/13 13:09:06;;;;;;;;;;;10.50;93.80;;;;;;4956274;29;19970;-76
2022/12/13 13:11:37;;;;;;;;;;;10.10;94.90;;;;;;4955142;29;20382;-76
2022/12/13 13:14:09;;;;;;;;;;;9.80;95.00;;;;;;4955228;29;20021;-77
2022/12/13 13:16:39;;;;;;;;;;;9.90;95.10;;;;;;4956206;29;19923;-76
2022/12/13 13:19:10;;;;;;;;;;;9.90;95.20;;;;;;4955699;28;20001;-77
2022/12/13 13:21:43;;;;;;;;;;;9.50;95.80;;;;;;4955411;29;19922;-77
2022/12/13 13:24:13;;;;;;;;;;;9.30;96.10;;;;;;4956558;28;20694;-75
2022/12/13 13:26:41;;;;;;;;;;;8.50;97.10;;;;;;4954857;29;19926;-77
2022/12/13 13:29:19;;;;;;;;;;;9.30;97.60;;;;;;4956682;29;19942;-79
2022/12/13 13:32:06;;;;;;;;;;;7.70;98.10;;;;;;4954728;29;19922;-77
2022/12/13 13:34:33;;;;;;;;;;;6.80;99.90;;;;;;4955335;28;20073;-77
2022/12/13 13:37:00;;;;;;;;;;;6.30;99.90;;;;;;4955823;29;19923;-78
2022/12/13 13:39:25;;;;;;;;;;;6.50;99.90;;;;;;4955986;28;19938;-78
2022/12/13 13:41:51;;;;;;;;;;;6.80;99.90;;;;;;4955487;29;19926;-79
2022/12/13 13:44:33;;;;;;;;;;;5.10;99.90;;;;;;4956290;29;20366;-78
2022/12/13 13:47:12;;;;;;;;;;;4.70;99.90;;;;;;4956809;28;19970;-82
2022/12/13 13:49:41;;;;;;;;;;;4.30;99.90;;;;;;4958103;28;20740;-80
2022/12/13 13:52:18;;;;;;;;;;;4.10;99.90;;;;;;4955953;28;19930;-77
2022/12/13 13:54:49;;;;;;;;;;;4.00;99.90;;;;;;4961399;28;19922;-79
2022/12/13 13:57:47;;;;;;;;;;;3.70;99.90;;;;;;4956399;29;19975;-77
2022/12/13 14:00:13;;;;;;;;;;;3.40;99.90;;;;;;4943963;29;20377;-81
2022/12/13 14:02:54;;;;;;;;;;;4.30;99.90;;;;;;4954255;29;19926;-82
2022/12/13 14:05:20;;;;;;;;;;;2.90;99.90;;;;;;4956472;29;19923;-87
2022/12/13 14:08:03;;;;;;;;;;;2.80;99.90;;;;;;4957033;29;19923;-80
2022/12/13 14:10:48;;;;;;;;;;;2.70;99.90;;;;;;4955059;28;19977;-85
2022/12/13 14:13:32;;;;;;;;;;;2.50;99.90;;;;;;4955605;28;19922;-78
2022/12/13 14:16:16;;;;;;;;;;;2.50;99.90;;;;;;4954298;29;19945;-81
2022/12/13 14:18:53;;;;;;;;;;;2.40;99.90;;;;;;4956250;29;20297;-83
2022/12/13 14:21:38;;;;;;;;;;;2.10;99.90;;;;;;4953933;29;19922;-83
2022/12/13 14:24:26;;;;;;;;;;;2.00;99.90;;;;;;4953630;28;20305;-83
2022/12/13 14:27:00;;;;;;;;;;;1.90;99.90;;;;;;4955861;29;19918;-81
2022/12/13 14:29:36;;;;;;;;;;;1.70;99.90;;;;;;4954407;29;20052;-83
2022/12/13 14:32:08;;;;;;;;;;;1.50;99.90;;;;;;4952673;28;20373;-82
2022/12/13 14:34:34;;;;;;;;;;;1.40;99.90;;;;;;4955188;29;19926;-79